Time;durP1;ratioP1;P1;durP2;ratioP2;P2;SDS_P1;SDS_P2;PMS_P1;PMS_P2;Temp;Humidity;BMP_temperature;BMP_pressure;BME280_temperature;BME280_humidity;BME280_pressure;Samples;Min_cycle;Max_cycle;Signal;HPM_P1;HPM_P2
2021/08/20 00:02:09;;;;;;;0.40;0.20;;;17.30;36.80;;;;;;5036784;28;20424;-64
2021/08/20 00:04:34;;;;;;;0.40;0.20;;;17.20;42.00;;;;;;5036758;28;20420;-64
2021/08/20 00:07:00;;;;;;;0.40;0.17;;;17.20;52.50;;;;;;5036904;28;20204;-64
2021/08/20 00:09:27;;;;;;;0.40;0.20;;;17.30;70.10;;;;;;5036590;28;20328;-67
2021/08/20 00:11:53;;;;;;;0.40;0.20;;;17.30;39.10;;;;;;5035780;28;20602;-71
2021/08/20 00:14:18;;;;;;;0.40;0.20;;;17.30;29.60;;;;;;5036528;28;20420;-69
2021/08/20 00:16:44;;;;;;;0.40;0.20;;;17.10;56.00;;;;;;5036678;28;20486;-68
2021/08/20 00:19:10;;;;;;;0.40;0.20;;;17.00;92.20;;;;;;5036225;28;20272;-69
2021/08/20 00:21:36;;;;;;;0.40;0.20;;;16.80;99.90;;;;;;5036368;28;20428;-69
2021/08/20 00:24:02;;;;;;;0.40;0.20;;;16.70;99.90;;;;;;5036215;28;20247;-69
2021/08/20 00:26:27;;;;;;;0.40;0.20;;;16.50;99.90;;;;;;5035056;28;20646;-68
2021/08/20 00:28:53;;;;;;;0.40;0.20;;;16.60;99.90;;;;;;5035962;28;20197;-69
2021/08/20 00:31:18;;;;;;;0.40;0.20;;;16.60;99.90;;;;;;5037567;28;20169;-69
2021/08/20 00:33:44;;;;;;;0.40;0.20;;;16.70;99.90;;;;;;5036420;28;20181;-68
2021/08/20 00:36:09;;;;;;;0.40;0.20;;;16.80;99.90;;;;;;5036213;28;20547;-68
2021/08/20 00:38:38;;;;;;;0.40;0.20;;;16.90;99.90;;;;;;5036526;28;20193;-68
2021/08/20 00:41:11;;;;;;;0.40;0.20;;;16.90;99.90;;;;;;5034810;28;20277;-69
2021/08/20 00:43:38;;;;;;;0.40;0.20;;;16.90;99.90;;;;;;5035727;28;20178;-69
2021/08/20 00:46:04;;;;;;;0.85;0.52;;;16.90;99.90;;;;;;5035623;28;20467;-68
2021/08/20 00:48:29;;;;;;;0.40;0.10;;;16.90;99.90;;;;;;5034395;28;20181;-68
2021/08/20 00:51:15;;;;;;;0.40;0.20;;;16.90;99.90;;;;;;5035572;28;20182;-65
2021/08/20 00:53:42;;;;;;;0.40;0.20;;;17.00;99.90;;;;;;5035771;28;20204;-65
2021/08/20 00:56:08;;;;;;;0.40;0.20;;;17.10;99.90;;;;;;5035518;28;20182;-65
2021/08/20 00:58:35;;;;;;;0.40;0.10;;;17.00;99.90;;;;;;5034246;28;20458;-65
2021/08/20 01:01:02;;;;;;;0.40;0.20;;;16.80;99.90;;;;;;5035498;28;20925;-65
2021/08/20 01:03:29;;;;;;;0.40;0.20;;;16.60;99.90;;;;;;5035246;28;20621;-65
2021/08/20 01:05:55;;;;;;;0.40;0.20;;;16.60;99.90;;;;;;5035236;28;20217;-65
2021/08/20 01:08:24;;;;;;;0.40;0.10;;;16.60;99.90;;;;;;5035209;28;20173;-65
2021/08/20 01:10:51;;;;;;;0.40;0.17;;;16.60;99.90;;;;;;5035258;28;20506;-65
2021/08/20 01:13:21;;;;;;;0.40;0.20;;;16.70;99.90;;;;;;5035370;28;20197;-65
2021/08/20 01:15:47;;;;;;;0.40;0.20;;;16.70;99.90;;;;;;5035028;28;20213;-65
2021/08/20 01:18:21;;;;;;;0.40;0.20;;;16.70;99.90;;;;;;5034917;28;20216;-65
2021/08/20 01:20:47;;;;;;;0.40;0.20;;;16.60;99.90;;;;;;5035110;28;20243;-65
2021/08/20 01:23:13;;;;;;;0.40;0.20;;;16.70;99.90;;;;;;5035018;28;20185;-65
2021/08/20 01:25:38;;;;;;;0.40;0.20;;;16.70;99.90;;;;;;5033781;28;20292;-65
2021/08/20 01:28:08;;;;;;;0.40;0.20;;;16.80;99.90;;;;;;5034743;28;20243;-65
2021/08/20 01:30:34;;;;;;;0.40;0.20;;;16.80;99.90;;;;;;5034766;28;20188;-65
2021/08/20 01:32:59;;;;;;;0.40;0.17;;;16.80;99.90;;;;;;5034739;28;20904;-65
2021/08/20 01:35:25;;;;;;;0.40;0.20;;;16.70;99.90;;;;;;5033695;28;20459;-65
2021/08/20 01:37:50;;;;;;;0.40;0.10;;;16.80;99.90;;;;;;5034726;28;20184;-65
2021/08/20 01:40:16;;;;;;;31.40;2.20;;;16.80;99.90;;;;;;5034595;28;20235;-65
2021/08/20 01:42:42;;;;;;;0.40;0.20;;;16.80;99.90;;;;;;5034650;28;20189;-67
2021/08/20 01:45:07;;;;;;;0.40;0.20;;;16.70;99.90;;;;;;5034431;28;20212;-67
2021/08/20 01:47:33;;;;;;;0.87;0.87;;;16.80;99.90;;;;;;5034429;28;20614;-67
2021/08/20 01:49:59;;;;;;;0.40;0.10;;;17.00;99.90;;;;;;5034591;28;20415;-69
2021/08/20 01:52:24;;;;;;;0.40;0.20;;;16.90;99.90;;;;;;5034491;28;20185;-68
2021/08/20 01:54:50;;;;;;;0.40;0.20;;;16.90;99.90;;;;;;5034001;28;20544;-68
2021/08/20 01:57:15;;;;;;;0.40;0.20;;;16.80;99.90;;;;;;5033523;28;20358;-69
2021/08/20 01:59:42;;;;;;;0.40;0.20;;;16.70;99.90;;;;;;5033304;28;20182;-69
2021/08/20 02:02:08;;;;;;;0.40;0.20;;;16.90;99.90;;;;;;5033411;28;20186;-69
2021/08/20 02:04:33;;;;;;;0.83;0.83;;;16.90;99.90;;;;;;5034221;28;20195;-68
2021/08/20 02:06:59;;;;;;;0.50;0.33;;;16.80;99.90;;;;;;5033314;28;20224;-69
2021/08/20 02:09:25;;;;;;;0.40;0.20;;;17.00;99.90;;;;;;5033040;28;20425;-69
2021/08/20 02:11:50;;;;;;;0.40;0.20;;;16.90;99.90;;;;;;5034141;28;20192;-68
2021/08/20 02:14:17;;;;;;;0.40;0.20;;;16.70;99.90;;;;;;5034497;28;20587;-68
2021/08/20 02:16:42;;;;;;;0.75;0.50;;;16.60;99.90;;;;;;5032874;28;20431;-68
2021/08/20 02:19:08;;;;;;;0.40;0.20;;;16.50;99.90;;;;;;5033949;28;20280;-68
2021/08/20 02:21:34;;;;;;;4.53;1.00;;;16.60;99.90;;;;;;5033920;28;20192;-67
2021/08/20 02:23:59;;;;;;;0.40;0.10;;;16.60;99.90;;;;;;5033897;28;20182;-67
2021/08/20 02:26:25;;;;;;;0.50;0.30;;;16.50;99.90;;;;;;5033889;28;20278;-65
2021/08/20 02:28:50;;;;;;;0.40;0.20;;;16.50;99.90;;;;;;5033640;28;20187;-68
2021/08/20 02:31:16;;;;;;;0.40;0.20;;;16.50;99.90;;;;;;5033935;28;20184;-68
2021/08/20 02:33:45;;;;;;;0.40;0.17;;;16.60;99.90;;;;;;5033845;28;20331;-65
2021/08/20 02:36:11;;;;;;;0.40;0.20;;;16.70;99.90;;;;;;5034074;28;20648;-65
2021/08/20 02:38:37;;;;;;;0.40;0.20;;;16.60;99.90;;;;;;5033534;28;20200;-65
2021/08/20 02:41:03;;;;;;;0.40;0.20;;;16.60;99.90;;;;;;5033775;28;20177;-69
2021/08/20 02:43:29;;;;;;;0.40;0.20;;;16.60;99.90;;;;;;5032646;28;20457;-65
2021/08/20 02:45:56;;;;;;;0.40;0.20;;;16.60;99.90;;;;;;5033696;28;20212;-65
2021/08/20 02:48:22;;;;;;;0.90;0.63;;;16.60;99.90;;;;;;5033522;28;20419;-67
2021/08/20 02:50:47;;;;;;;0.40;0.20;;;16.80;99.90;;;;;;5033793;28;20177;-65
2021/08/20 02:53:13;;;;;;;0.40;0.20;;;16.90;99.90;;;;;;5033989;28;20179;-67
2021/08/20 02:55:38;;;;;;;0.40;0.20;;;16.90;99.90;;;;;;5034013;28;20177;-67
2021/08/20 02:58:05;;;;;;;0.40;0.10;;;16.80;99.90;;;;;;5033785;28;20197;-67
2021/08/20 03:00:30;;;;;;;2.13;1.20;;;16.90;99.90;;;;;;5034394;28;20181;-69
2021/08/20 03:02:56;;;;;;;0.40;0.30;;;16.90;99.90;;;;;;5033644;28;20181;-66
2021/08/20 03:05:22;;;;;;;0.50;0.20;;;16.70;99.90;;;;;;5033672;28;20669;-65
2021/08/20 03:07:47;;;;;;;0.40;0.10;;;16.70;99.90;;;;;;5036305;28;20358;-65
2021/08/20 03:10:13;;;;;;;0.40;0.10;;;16.70;99.90;;;;;;5037312;28;20181;-66
2021/08/20 03:12:39;;;;;;;0.40;0.20;;;16.80;99.90;;;;;;5037233;28;20188;-67
2021/08/20 03:15:05;;;;;;;0.40;0.13;;;16.80;99.90;;;;;;5036559;28;20960;-66
2021/08/20 03:17:31;;;;;;;0.40;0.10;;;17.00;99.90;;;;;;5037457;28;20195;-66
2021/08/20 03:19:57;;;;;;;0.40;0.13;;;16.90;99.90;;;;;;5037250;28;20177;-65
2021/08/20 03:22:22;;;;;;;0.40;0.20;;;16.80;99.90;;;;;;5037302;28;20240;-65
2021/08/20 03:24:48;;;;;;;0.40;0.20;;;16.80;99.90;;;;;;5037206;28;20686;-67
2021/08/20 03:27:13;;;;;;;0.40;0.10;;;16.80;99.90;;;;;;5037150;28;20173;-68
2021/08/20 03:29:39;;;;;;;0.40;0.20;;;16.90;99.90;;;;;;5037186;28;20481;-69
2021/08/20 03:32:05;;;;;;;0.40;0.20;;;16.90;99.90;;;;;;5036999;28;20178;-68
2021/08/20 03:34:31;;;;;;;0.40;0.10;;;16.80;99.90;;;;;;5037004;28;20575;-68
2021/08/20 03:36:56;;;;;;;0.40;0.20;;;16.80;99.90;;;;;;5035986;28;20189;-69
2021/08/20 03:39:22;;;;;;;0.40;0.10;;;16.70;99.90;;;;;;5036794;28;20903;-69
2021/08/20 03:41:48;;;;;;;0.40;0.20;;;16.70;99.90;;;;;;5036872;28;20189;-68
2021/08/20 03:44:14;;;;;;;0.50;0.30;;;16.70;99.90;;;;;;5035924;28;20185;-68
2021/08/20 03:46:40;;;;;;;0.40;0.20;;;16.80;99.90;;;;;;5036620;28;20516;-69
2021/08/20 03:49:06;;;;;;;0.40;0.20;;;16.90;99.90;;;;;;5036794;28;20569;-65
2021/08/20 03:51:32;;;;;;;0.40;0.20;;;16.90;99.90;;;;;;5036898;28;20479;-67
2021/08/20 03:53:57;;;;;;;0.40;0.20;;;16.90;99.90;;;;;;5037052;28;20251;-68
2021/08/20 03:56:23;;;;;;;0.40;0.20;;;16.80;99.90;;;;;;5035685;28;20190;-69
2021/08/20 03:58:49;;;;;;;0.40;0.10;;;16.70;99.90;;;;;;5036307;28;20197;-66
2021/08/20 04:01:14;;;;;;;0.40;0.20;;;16.70;99.90;;;;;;5035512;28;20185;-66
2021/08/20 04:03:40;;;;;;;0.40;0.10;;;16.60;99.90;;;;;;5035483;28;20181;-66
2021/08/20 04:06:09;;;;;;;0.40;0.20;;;16.50;99.90;;;;;;5036559;28;20281;-65
2021/08/20 04:08:35;;;;;;;0.40;0.20;;;16.40;99.90;;;;;;5035155;28;20180;-65
2021/08/20 04:11:01;;;;;;;0.40;0.20;;;16.40;99.90;;;;;;5036359;28;20253;-67
2021/08/20 04:13:27;;;;;;;0.40;0.20;;;16.50;99.90;;;;;;5036300;28;20511;-68
2021/08/20 04:15:52;;;;;;;0.50;0.40;;;16.60;99.90;;;;;;5036045;28;20667;-68
2021/08/20 04:18:18;;;;;;;0.40;0.20;;;16.40;99.90;;;;;;5035407;28;20182;-68
2021/08/20 04:20:44;;;;;;;0.40;0.20;;;16.30;99.90;;;;;;5036146;28;20185;-69
2021/08/20 04:23:10;;;;;;;0.40;0.20;;;16.30;99.90;;;;;;5035865;28;20641;-68
2021/08/20 04:25:35;;;;;;;0.40;0.20;;;16.40;99.90;;;;;;5035912;28;20201;-68
2021/08/20 04:28:01;;;;;;;0.40;0.20;;;16.30;99.90;;;;;;5035942;28;20248;-69
2021/08/20 04:30:29;;;;;;;0.40;0.20;;;16.50;99.90;;;;;;5034648;28;20593;-70
2021/08/20 04:32:56;;;;;;;0.40;0.10;;;16.30;99.90;;;;;;5035871;28;20435;-69
2021/08/20 04:35:23;;;;;;;0.40;0.20;;;16.40;99.90;;;;;;5035955;28;20677;-69
2021/08/20 04:37:49;;;;;;;0.50;0.30;;;16.50;99.90;;;;;;5035630;28;20420;-70
2021/08/20 04:40:14;;;;;;;0.40;0.20;;;16.40;99.90;;;;;;5035583;28;20184;-69
2021/08/20 04:42:40;;;;;;;0.40;0.20;;;16.30;99.90;;;;;;5035734;28;20208;-69
2021/08/20 04:45:06;;;;;;;0.37;0.20;;;16.20;99.90;;;;;;5035713;28;20243;-69
2021/08/20 04:47:32;;;;;;;0.40;0.20;;;16.40;99.90;;;;;;5035586;28;20181;-69
2021/08/20 04:49:57;;;;;;;0.40;0.20;;;16.50;99.90;;;;;;5034467;28;20491;-69
2021/08/20 04:52:23;;;;;;;0.40;0.20;;;16.60;99.90;;;;;;5035795;28;20424;-66
2021/08/20 04:54:49;;;;;;;0.40;0.20;;;16.60;99.90;;;;;;5035886;28;20209;-67
2021/08/20 04:57:14;;;;;;;0.40;0.30;;;16.50;99.90;;;;;;5035309;28;20193;-68
2021/08/20 04:59:40;;;;;;;0.40;0.10;;;16.40;99.90;;;;;;5034810;28;20182;-66
2021/08/20 05:02:06;;;;;;;0.40;0.20;;;16.40;99.90;;;;;;5035414;28;20188;-66
2021/08/20 05:04:36;;;;;;;0.40;0.10;;;16.50;99.90;;;;;;5035442;28;20545;-68
2021/08/20 05:07:05;;;;;;;0.40;0.10;;;16.40;99.90;;;;;;5035692;28;20208;-67
2021/08/20 05:09:34;;;;;;;0.40;0.20;;;16.60;99.90;;;;;;5035490;28;20568;-66
2021/08/20 05:12:01;;;;;;;0.40;0.20;;;16.70;99.90;;;;;;5036056;28;20608;-67
2021/08/20 05:14:27;;;;;;;0.40;0.20;;;16.60;99.90;;;;;;5035757;28;20173;-66
2021/08/20 05:16:52;;;;;;;0.68;0.68;;;16.40;99.90;;;;;;5034887;28;20571;-68
2021/08/20 05:19:18;;;;;;;0.40;0.20;;;16.50;99.90;;;;;;5035014;28;20177;-69
2021/08/20 05:21:44;;;;;;;0.67;0.67;;;16.40;99.90;;;;;;5034958;28;20173;-69
2021/08/20 05:24:09;;;;;;;0.40;0.20;;;16.40;99.90;;;;;;5035022;28;20619;-69
2021/08/20 05:26:35;;;;;;;0.40;0.17;;;16.50;99.90;;;;;;5034741;28;20547;-68
2021/08/20 05:29:00;;;;;;;0.40;0.20;;;16.40;99.90;;;;;;5033913;28;20188;-69
2021/08/20 05:31:26;;;;;;;0.40;0.20;;;16.50;99.90;;;;;;5034893;28;20251;-69
2021/08/20 05:33:51;;;;;;;0.40;0.20;;;16.60;99.90;;;;;;5034805;28;20216;-68
2021/08/20 05:36:17;;;;;;;0.40;0.20;;;16.50;99.90;;;;;;5034543;28;20591;-67
2021/08/20 05:38:43;;;;;;;1.13;1.13;;;16.70;99.90;;;;;;5034243;28;20188;-66
2021/08/20 05:41:08;;;;;;;0.40;0.20;;;16.80;99.90;;;;;;5034505;28;20504;-68
2021/08/20 05:43:34;;;;;;;0.40;0.20;;;16.90;99.90;;;;;;5033161;28;20611;-70
2021/08/20 05:45:59;;;;;;;0.60;0.50;;;17.00;99.90;;;;;;5034424;28;20649;-70
2021/08/20 05:48:25;;;;;;;0.40;0.20;;;17.10;99.90;;;;;;5033838;28;20320;-69
2021/08/20 05:50:51;;;;;;;0.40;0.20;;;17.20;99.90;;;;;;5033142;28;20632;-68
2021/08/20 05:53:16;;;;;;;0.40;0.20;;;17.10;99.90;;;;;;5030820;28;20216;-65
2021/08/20 05:55:42;;;;;;;0.60;0.50;;;17.10;99.90;;;;;;5030490;28;20188;-65
2021/08/20 05:58:08;;;;;;;0.40;0.20;;;17.20;99.90;;;;;;5033615;28;20211;-65
2021/08/20 06:00:34;;;;;;;0.40;0.20;;;17.20;99.90;;;;;;5031078;28;20280;-65
2021/08/20 06:03:00;;;;;;;0.40;0.20;;;17.30;99.90;;;;;;5033904;28;20181;-66
2021/08/20 06:05:26;;;;;;;0.40;0.20;;;17.30;99.90;;;;;;5034007;28;20456;-66
2021/08/20 06:07:51;;;;;;;0.40;0.20;;;17.30;99.90;;;;;;5033344;28;20619;-65
2021/08/20 06:10:18;;;;;;;0.40;0.20;;;17.30;99.90;;;;;;5033959;28;20178;-67
2021/08/20 06:12:44;;;;;;;0.40;0.20;;;17.60;99.90;;;;;;5034121;28;20227;-66
2021/08/20 06:15:10;;;;;;;0.50;0.33;;;17.60;99.90;;;;;;5033983;28;20750;-65
2021/08/20 06:17:36;;;;;;;0.40;0.17;;;17.60;99.90;;;;;;5033828;28;20498;-65
2021/08/20 06:20:02;;;;;;;0.40;0.20;;;17.40;99.90;;;;;;5033250;28;20908;-65
2021/08/20 06:22:28;;;;;;;0.40;0.20;;;17.30;99.90;;;;;;5031903;28;20264;-69
2021/08/20 06:24:54;;;;;;;0.40;0.20;;;17.20;99.90;;;;;;5033668;28;20961;-72
2021/08/20 06:27:19;;;;;;;0.40;0.17;;;16.90;99.90;;;;;;5032867;28;20169;-70
2021/08/20 06:29:45;;;;;;;0.40;0.10;;;16.70;99.90;;;;;;5033446;28;20209;-66
2021/08/20 06:32:10;;;;;;;0.40;0.20;;;16.80;99.90;;;;;;5033762;28;20212;-66
2021/08/20 06:34:36;;;;;;;0.40;0.10;;;16.70;99.90;;;;;;5034229;28;20178;-66
2021/08/20 06:37:02;;;;;;;0.40;0.20;;;16.70;99.90;;;;;;5036389;28;20666;-67
2021/08/20 06:39:27;;;;;;;0.40;0.20;;;16.60;99.90;;;;;;5033534;28;20558;-67
2021/08/20 06:41:53;;;;;;;0.40;0.20;;;16.60;99.90;;;;;;5033139;28;20615;-67
2021/08/20 06:44:18;;;;;;;0.40;0.13;;;16.60;99.90;;;;;;5033267;28;20189;-67
2021/08/20 06:46:44;;;;;;;0.40;0.10;;;16.40;99.90;;;;;;5033105;28;20248;-67
2021/08/20 06:49:09;;;;;;;0.40;0.20;;;16.50;99.90;;;;;;5033411;28;20256;-68
2021/08/20 06:51:37;;;;;;;0.40;0.10;;;16.50;99.90;;;;;;5033463;28;20182;-67
2021/08/20 06:54:03;;;;;;;0.50;0.43;;;16.40;99.90;;;;;;5033596;28;20288;-68
2021/08/20 06:56:29;;;;;;;0.40;0.20;;;16.60;99.90;;;;;;5033445;28;20514;-68
2021/08/20 06:58:57;;;;;;;0.37;0.10;;;16.80;99.90;;;;;;5033471;28;20764;-67
2021/08/20 07:01:26;;;;;;;0.40;0.20;;;16.90;99.90;;;;;;5033653;28;20511;-66
2021/08/20 07:03:52;;;;;;;0.57;0.30;;;16.70;99.90;;;;;;5032273;28;20428;-64
2021/08/20 07:06:22;;;;;;;0.40;0.20;;;16.80;99.90;;;;;;5033382;28;20554;-63
2021/08/20 07:08:49;;;;;;;0.40;0.10;;;16.90;99.90;;;;;;5034877;28;20223;-65
2021/08/20 07:11:18;;;;;;;0.40;0.20;;;17.10;99.90;;;;;;5036959;28;20425;-67
2021/08/20 07:13:44;;;;;;;0.40;0.10;;;17.20;99.90;;;;;;5037384;28;20520;-66
2021/08/20 07:16:09;;;;;;;0.40;0.10;;;17.40;99.90;;;;;;5034144;28;20503;-68
2021/08/20 07:18:36;;;;;;;0.40;0.20;;;17.60;99.90;;;;;;5048735;28;20185;-67
2021/08/20 07:21:02;;;;;;;0.40;0.20;;;17.40;99.90;;;;;;5033331;28;20181;-67
2021/08/20 07:23:28;;;;;;;0.40;0.10;;;17.30;99.90;;;;;;5033418;28;20489;-65
2021/08/20 07:25:54;;;;;;;0.40;0.20;;;17.30;99.90;;;;;;5033067;28;20826;-65
2021/08/20 07:28:19;;;;;;;0.40;0.20;;;17.30;99.90;;;;;;5033041;28;20412;-65
2021/08/20 07:30:45;;;;;;;0.40;0.20;;;17.30;99.90;;;;;;5033050;28;20180;-65
2021/08/20 07:33:10;;;;;;;0.40;0.10;;;17.30;99.90;;;;;;5033037;28;20315;-65
2021/08/20 07:35:36;;;;;;;0.40;0.10;;;17.50;99.90;;;;;;5033222;28;20269;-66
2021/08/20 07:38:01;;;;;;;0.40;0.20;;;17.50;99.90;;;;;;5033458;28;20178;-66
2021/08/20 07:40:27;;;;;;;0.40;0.20;;;17.50;99.90;;;;;;5032859;28;20525;-68
2021/08/20 07:42:53;;;;;;;0.40;0.20;;;17.80;99.90;;;;;;5032851;28;20198;-65
2021/08/20 07:45:18;;;;;;;0.40;0.20;;;17.90;99.90;;;;;;5031783;28;20211;-73
2021/08/20 07:47:49;;;;;;;0.40;0.20;;;17.50;99.90;;;;;;5032722;28;20192;-67
2021/08/20 07:50:15;;;;;;;0.43;0.30;;;17.30;99.90;;;;;;5032656;28;20757;-67
2021/08/20 07:52:41;;;;;;;0.50;0.33;;;17.20;99.90;;;;;;5035242;28;20417;-68
2021/08/20 07:55:08;;;;;;;0.40;0.20;;;17.00;99.90;;;;;;5036637;28;20759;-67
2021/08/20 07:57:50;;;;;;;0.50;0.33;;;17.10;99.90;;;;;;5036696;28;20201;-65
2021/08/20 08:00:20;;;;;;;0.40;0.20;;;17.40;99.90;;;;;;5036406;28;20430;-67
2021/08/20 08:02:45;;;;;;;0.40;0.10;;;17.60;99.90;;;;;;5037732;28;20801;-68
2021/08/20 08:05:11;;;;;;;0.70;0.60;;;17.70;99.90;;;;;;5039806;28;20470;-67
2021/08/20 08:07:37;;;;;;;0.40;0.20;;;17.50;99.90;;;;;;5036186;28;20189;-66
2021/08/20 08:10:04;;;;;;;0.40;0.20;;;17.60;99.90;;;;;;5035922;28;20211;-67
2021/08/20 08:12:29;;;;;;;0.40;0.20;;;17.70;99.90;;;;;;5036090;28;20212;-67
2021/08/20 08:14:55;;;;;;;0.40;0.10;;;17.80;99.90;;;;;;5037250;28;20819;-66
2021/08/20 08:17:20;;;;;;;0.40;0.10;;;17.80;99.90;;;;;;5036332;28;20182;-66
2021/08/20 08:19:46;;;;;;;0.60;0.47;;;17.90;99.90;;;;;;5038214;28;20200;-66
2021/08/20 08:22:11;;;;;;;0.40;0.10;;;18.00;99.90;;;;;;5037672;28;20190;-66
2021/08/20 08:24:37;;;;;;;0.40;0.20;;;18.40;99.90;;;;;;5035620;28;20217;-65
2021/08/20 08:27:03;;;;;;;0.40;0.20;;;18.90;99.90;;;;;;5035708;28;20244;-68
2021/08/20 08:29:28;;;;;;;0.40;0.20;;;19.10;99.90;;;;;;5034931;28;20178;-68
2021/08/20 08:31:54;;;;;;;0.40;0.20;;;18.80;99.90;;;;;;5036359;28;20188;-67
2021/08/20 08:34:19;;;;;;;0.40;0.20;;;18.70;99.90;;;;;;5039325;28;20217;-67
2021/08/20 08:36:46;;;;;;;0.40;0.10;;;18.60;99.90;;;;;;5036436;28;20182;-65
2021/08/20 08:39:12;;;;;;;0.50;0.50;;;19.00;99.90;;;;;;5037732;28;20185;-67
2021/08/20 08:41:37;;;;;;;0.40;0.20;;;19.50;99.90;;;;;;5035396;28;20501;-65
2021/08/20 08:44:04;;;;;;;0.40;0.10;;;19.90;93.60;;;;;;5034561;28;20543;-65
2021/08/20 08:46:36;;;;;;;0.40;0.20;;;19.50;99.90;;;;;;5036283;28;20205;-65
2021/08/20 08:49:02;;;;;;;0.40;0.10;;;19.10;99.90;;;;;;5036128;28;20428;-66
2021/08/20 08:51:28;;;;;;;0.60;0.50;;;19.40;99.90;;;;;;5032667;28;20440;-65
2021/08/20 08:53:53;;;;;;;1.00;1.00;;;19.70;99.90;;;;;;5035647;28;20431;-65
2021/08/20 08:56:20;;;;;;;0.40;0.20;;;19.90;99.90;;;;;;5032004;28;20192;-65
2021/08/20 08:58:45;;;;;;;0.50;0.30;;;19.90;47.20;;;;;;5036221;28;20205;-66
2021/08/20 09:01:31;;;;;;;3.40;2.40;;;20.00;10.80;;;;;;5035921;28;20439;-65
2021/08/20 09:04:09;;;;;;;0.40;0.20;;;20.00;20.00;;;;;;5035308;28;20181;-66
2021/08/20 09:06:43;;;;;;;1.63;0.47;;;20.50;1.00;;;;;;5035956;28;20483;-69
2021/08/20 09:09:14;;;;;;;0.40;0.10;;;20.80;1.00;;;;;;5034568;28;20908;-68
2021/08/20 09:11:42;;;;;;;0.60;0.40;;;21.00;1.00;;;;;;5035783;28;20738;-66
2021/08/20 09:14:08;;;;;;;0.40;0.10;;;20.80;1.00;;;;;;5035397;28;20424;-68
2021/08/20 09:16:45;;;;;;;1.03;0.77;;;20.80;1.00;;;;;;5033492;28;20440;-66
2021/08/20 09:19:17;;;;;;;0.40;0.10;;;21.00;1.00;;;;;;5035486;28;20511;-67
2021/08/20 09:21:52;;;;;;;0.40;0.20;;;21.40;1.00;;;;;;5027760;28;20433;-68
2021/08/20 09:24:32;;;;;;;0.83;0.67;;;22.00;99.90;;;;;;5027280;28;20437;-66
2021/08/20 09:27:21;;;;;;;0.40;0.20;;;21.70;99.90;;;;;;5035379;28;20509;-69
2021/08/20 09:30:08;;;;;;;0.40;0.20;;;21.50;99.90;;;;;;5035584;28;20885;-70
2021/08/20 09:32:52;;;;;;;0.50;0.33;;;21.30;1.00;;;;;;5015664;28;20591;-66
2021/08/20 09:35:19;;;;;;;0.50;0.20;;;21.00;1.00;;;;;;5015669;28;20503;-67
2021/08/20 09:37:45;;;;;;;0.67;0.57;;;20.80;1.00;;;;;;5015498;28;20498;-67
2021/08/20 09:40:13;;;;;;;0.40;0.20;;;20.40;1.00;;;;;;5015336;28;20436;-66
2021/08/20 09:42:41;;;;;;;1.13;1.07;;;20.00;84.40;;;;;;5019955;28;20451;-66
2021/08/20 09:45:23;;;;;;;0.40;0.20;;;20.00;99.90;;;;;;5034880;28;20424;-66
2021/08/20 09:47:52;;;;;;;0.40;0.10;;;20.40;99.90;;;;;;5034842;28;20902;-65
2021/08/20 09:50:19;;;;;;;0.40;0.10;;;20.80;71.30;;;;;;5026740;28;20448;-65
2021/08/20 09:52:46;;;;;;;0.40;0.20;;;20.90;1.00;;;;;;5035099;28;20432;-69
2021/08/20 09:55:12;;;;;;;3.60;0.97;;;21.30;1.00;;;;;;5035078;28;20439;-68
2021/08/20 09:57:39;;;;;;;0.40;0.20;;;21.40;1.00;;;;;;5033556;28;20452;-65
2021/08/20 10:00:09;;;;;;;0.70;0.40;;;21.40;1.00;;;;;;5036116;28;20538;-68
2021/08/20 10:02:39;;;;;;;3.13;0.50;;;20.80;1.00;;;;;;5033716;28;20474;-66
2021/08/20 10:05:06;;;;;;;1.33;1.23;;;20.30;1.00;;;;;;5034955;28;20443;-66
2021/08/20 10:07:38;;;;;;;0.77;0.50;;;20.00;63.70;;;;;;5034871;28;20790;-65
2021/08/20 10:10:05;;;;;;;0.40;0.20;;;20.30;99.90;;;;;;5036504;28;20438;-67
2021/08/20 10:12:32;;;;;;;0.50;0.50;;;20.60;31.00;;;;;;5037758;28;20955;-65
2021/08/20 10:14:58;;;;;;;0.40;0.13;;;20.60;19.60;;;;;;5037873;28;20424;-65
2021/08/20 10:17:24;;;;;;;1.50;1.37;;;21.20;4.20;;;;;;5036327;28;20571;-66
2021/08/20 10:19:49;;;;;;;0.50;0.30;;;21.10;1.00;;;;;;5035829;28;20568;-65
2021/08/20 10:22:16;;;;;;;0.87;0.40;;;21.00;1.00;;;;;;5036277;28;20502;-65
2021/08/20 10:24:41;;;;;;;1.47;1.37;;;21.30;1.00;;;;;;5036510;28;20598;-67
2021/08/20 10:27:09;;;;;;;1.50;1.37;;;21.30;1.00;;;;;;5034810;28;20464;-64
2021/08/20 10:29:39;;;;;;;1.90;1.80;;;21.60;1.00;;;;;;5033961;28;20247;-65
2021/08/20 10:32:07;;;;;;;0.50;0.40;;;22.00;1.00;;;;;;5034328;28;20448;-64
2021/08/20 10:34:34;;;;;;;0.40;0.10;;;22.10;99.90;;;;;;5034477;28;20818;-64
2021/08/20 10:37:05;;;;;;;0.60;0.40;;;21.90;1.00;;;;;;5034158;28;20424;-68
2021/08/20 10:39:31;;;;;;;0.40;0.20;;;21.80;1.00;;;;;;5033807;28;20436;-64
2021/08/20 10:42:04;;;;;;;1.03;0.93;;;21.60;1.00;;;;;;5032140;28;20450;-66
2021/08/20 10:44:56;;;;;;;2.20;1.57;;;21.80;1.00;;;;;;5034165;28;20177;-65
2021/08/20 10:47:27;;;;;;;1.60;0.57;;;21.80;1.00;;;;;;5032249;28;20470;-69
2021/08/20 10:50:14;;;;;;;1.50;1.20;;;21.70;1.00;;;;;;5033912;28;20421;-67
2021/08/20 10:52:44;;;;;;;1.13;1.03;;;21.40;1.00;;;;;;5028975;28;20494;-66
2021/08/20 10:55:24;;;;;;;9.00;3.83;;;21.30;1.00;;;;;;5034022;28;20452;-67
2021/08/20 10:57:54;;;;;;;2.33;2.13;;;21.20;1.00;;;;;;5033696;28;20812;-67
2021/08/20 11:00:20;;;;;;;0.87;0.50;;;21.60;1.00;;;;;;5020739;28;20436;-67
2021/08/20 11:02:53;;;;;;;0.40;0.10;;;21.50;1.00;;;;;;5031275;28;20428;-66
2021/08/20 11:05:34;;;;;;;0.50;0.37;;;21.60;1.00;;;;;;5031980;28;20229;-66
2021/08/20 11:08:00;;;;;;;1.67;1.57;;;21.90;1.00;;;;;;5013822;28;20432;-67
2021/08/20 11:10:25;;;;;;;0.40;0.20;;;21.90;1.00;;;;;;5012472;28;20540;-67
2021/08/20 11:12:51;;;;;;;0.50;0.43;;;21.50;1.00;;;;;;5033150;28;20570;-66
2021/08/20 11:15:26;;;;;;;0.40;0.20;;;21.30;1.00;;;;;;5032187;28;20272;-67
2021/08/20 11:17:56;;;;;;;1.07;0.73;;;21.80;1.00;;;;;;5033275;28;20177;-66
2021/08/20 11:20:28;;;;;;;2.77;2.60;;;21.50;1.00;;;;;;5034285;28;20801;-67
2021/08/20 11:23:12;;;;;;;3.50;3.30;;;21.00;1.00;;;;;;5033798;28;20423;-69
2021/08/20 11:25:39;;;;;;;1.37;1.27;;;20.90;1.00;;;;;;5032056;28;20496;-67
2021/08/20 11:28:19;;;;;;;4.07;2.80;;;20.70;1.00;;;;;;5035967;28;20781;-67
2021/08/20 11:30:56;;;;;;;3.30;3.07;;;20.60;1.00;;;;;;5034088;28;20832;-67
2021/08/20 11:33:26;;;;;;;0.50;0.20;;;20.40;1.00;;;;;;5034624;28;20492;-67
2021/08/20 11:36:00;;;;;;;0.50;0.30;;;20.60;1.00;;;;;;5031201;28;20486;-68
2021/08/20 11:38:30;;;;;;;0.93;0.70;;;21.10;1.00;;;;;;5037205;28;20428;-67
2021/08/20 11:41:03;;;;;;;0.50;0.50;;;21.30;1.00;;;;;;5036527;28;20451;-63
2021/08/20 11:43:29;;;;;;;0.50;0.40;;;21.40;99.90;;;;;;5037108;28;20471;-63
2021/08/20 11:46:06;;;;;;;0.40;0.20;;;21.70;87.60;;;;;;5036588;28;20455;-64
2021/08/20 11:48:48;;;;;;;0.77;0.53;;;21.60;99.90;;;;;;5038013;28;20432;-64
2021/08/20 11:51:23;;;;;;;0.50;0.30;;;21.50;1.00;;;;;;5037877;28;20432;-68
2021/08/20 11:53:49;;;;;;;0.93;0.70;;;21.60;1.00;;;;;;5036835;28;20427;-64
2021/08/20 11:56:16;;;;;;;0.60;0.53;;;21.60;1.00;;;;;;5031722;28;20432;-63
2021/08/20 11:58:43;;;;;;;3.17;1.90;;;21.30;81.60;;;;;;5031366;28;20664;-63
2021/08/20 12:01:28;;;;;;;0.40;0.20;;;21.00;1.00;;;;;;5033185;28;20972;-63
2021/08/20 12:03:56;;;;;;;1.07;0.73;;;20.70;1.00;;;;;;5037128;28;20448;-64
2021/08/20 12:06:22;;;;;;;0.63;0.60;;;20.10;1.00;;;;;;5037003;28;20546;-65
2021/08/20 12:08:48;;;;;;;0.50;0.30;;;19.90;78.30;;;;;;5037458;28;20526;-65
2021/08/20 12:11:20;;;;;;;2.93;1.13;;;20.20;99.90;;;;;;5038021;28;20432;-64
2021/08/20 12:13:53;;;;;;;0.97;0.50;;;20.40;1.00;;;;;;5038025;28;20185;-64
2021/08/20 12:16:33;;;;;;;3.00;1.00;;;20.50;1.00;;;;;;5036839;28;20523;-65
2021/08/20 12:19:10;;;;;;;0.70;0.40;;;20.70;1.00;;;;;;5037880;28;20423;-64
2021/08/20 12:21:35;;;;;;;1.90;0.60;;;20.40;1.00;;;;;;5036839;28;20427;-65
2021/08/20 12:24:03;;;;;;;0.80;0.70;;;20.30;1.00;;;;;;5036642;28;20490;-63
2021/08/20 12:26:29;;;;;;;0.70;0.40;;;20.40;99.90;;;;;;5036804;28;20213;-63
2021/08/20 12:28:56;;;;;;;0.40;0.20;;;20.30;5.20;;;;;;5036484;28;20456;-63
2021/08/20 12:31:23;;;;;;;1.33;1.23;;;20.50;91.00;;;;;;5035739;28;20428;-64
2021/08/20 12:34:06;;;;;;;1.13;0.73;;;20.50;8.60;;;;;;5036744;28;20907;-64
2021/08/20 12:36:32;;;;;;;0.80;0.70;;;20.20;1.00;;;;;;5036361;28;20428;-64
2021/08/20 12:39:11;;;;;;;0.40;0.20;;;20.30;1.00;;;;;;5035805;28;20439;-67
2021/08/20 12:41:38;;;;;;;0.50;0.37;;;20.30;1.00;;;;;;5035364;28;20661;-65
2021/08/20 12:44:05;;;;;;;2.80;2.60;;;20.20;1.00;;;;;;5036157;28;20432;-64
2021/08/20 12:46:36;;;;;;;1.73;1.63;;;20.10;1.00;;;;;;5035464;28;20555;-66
2021/08/20 12:49:05;;;;;;;1.43;1.37;;;20.60;1.00;;;;;;5035971;28;20435;-66
2021/08/20 12:51:31;;;;;;;0.40;0.20;;;20.80;99.90;;;;;;5036090;28;20436;-65